Time;durP1;ratioP1;P1;durP2;ratioP2;P2;SDS_P1;SDS_P2;PMS_P1;PMS_P2;Temp;Humidity;BMP_temperature;BMP_pressure;BME280_temperature;BME280_humidity;BME280_pressure;Samples;Min_cycle;Max_cycle;Signal;HPM_P1;HPM_P2
2023/04/12 00:01:03;;;;;;;5.97;4.80;;;1.10;99.90;;;;;;6187725;23;20214;-81
2023/04/12 00:03:32;;;;;;;8.10;4.97;;;1.10;76.60;;;;;;6212187;23;20499;-82
2023/04/12 00:06:02;;;;;;;7.27;4.80;;;1.00;1.00;;;;;;6184886;23;20240;-82
2023/04/12 00:08:34;;;;;;;7.67;4.77;;;1.00;63.40;;;;;;6184868;23;20177;-82
2023/04/12 00:11:01;;;;;;;6.20;4.70;;;1.00;99.90;;;;;;6184916;23;20193;-82
2023/04/12 00:13:27;;;;;;;8.47;4.90;;;0.90;99.90;;;;;;6185149;23;20158;-81
2023/04/12 00:15:53;;;;;;;8.23;4.43;;;0.90;99.90;;;;;;6185449;23;20594;-82
2023/04/12 00:18:18;;;;;;;7.37;4.60;;;0.90;1.00;;;;;;6211530;23;20151;-82
2023/04/12 00:20:44;;;;;;;8.50;4.70;;;1.00;99.90;;;;;;6184600;23;20178;-82
2023/04/12 00:23:11;;;;;;;10.40;4.53;;;1.00;1.00;;;;;;6185261;23;20289;-82
2023/04/12 00:25:38;;;;;;;8.00;4.90;;;1.00;1.00;;;;;;6184890;23;20158;-80
2023/04/12 00:28:04;;;;;;;7.73;4.63;;;1.10;1.00;;;;;;6210743;23;20150;-82
2023/04/12 00:30:29;;;;;;;7.50;4.77;;;1.10;1.00;;;;;;6184256;23;20205;-82
2023/04/12 00:32:55;;;;;;;6.57;5.07;;;2.30;99.90;;;;;;6184520;23;20154;-81
2023/04/12 00:35:21;;;;;;;6.30;4.50;;;1.20;1.00;;;;;;6211554;23;20157;-81
2023/04/12 00:37:46;;;;;;;6.77;4.33;;;1.20;99.90;;;;;;6184447;23;20190;-81
2023/04/12 00:40:12;;;;;;;6.63;4.57;;;1.20;99.90;;;;;;6184018;23;20688;-82
2023/04/12 00:42:38;;;;;;;9.70;4.93;;;1.60;1.00;;;;;;6184603;23;20213;-80
2023/04/12 00:45:05;;;;;;;9.30;4.90;;;1.20;1.00;;;;;;6184682;23;20162;-82
2023/04/12 00:47:33;;;;;;;8.40;4.73;;;1.30;1.00;;;;;;6184511;23;20169;-80
2023/04/12 00:50:00;;;;;;;5.47;4.40;;;1.40;1.00;;;;;;6210726;23;20174;-83
2023/04/12 00:52:33;;;;;;;7.13;4.57;;;1.40;99.90;;;;;;6211807;23;20166;-82
2023/04/12 00:55:00;;;;;;;6.67;4.80;;;1.50;1.00;;;;;;6211145;23;20154;-80
2023/04/12 00:57:26;;;;;;;6.70;4.37;;;1.50;1.00;;;;;;6184666;23;20158;-82
2023/04/12 00:59:52;;;;;;;6.47;4.47;;;1.40;1.00;;;;;;6184096;23;20233;-80
2023/04/12 01:02:18;;;;;;;6.87;4.67;;;1.40;1.00;;;;;;6185087;23;20232;-81
2023/04/12 01:04:44;;;;;;;6.40;4.60;;;1.40;1.00;;;;;;6184712;23;20204;-81
2023/04/12 01:07:26;;;;;;;7.97;4.93;;;1.40;1.00;;;;;;6184617;23;20587;-81
2023/04/12 01:10:11;;;;;;;6.53;4.57;;;1.40;1.00;;;;;;6210522;23;20189;-82
2023/04/12 01:13:01;;;;;;;6.40;4.50;;;1.50;1.00;;;;;;6184729;23;20385;-80
2023/04/12 01:15:31;;;;;;;7.03;4.53;;;1.40;99.90;;;;;;6185496;23;20159;-81
2023/04/12 01:18:15;;;;;;;7.07;4.27;;;1.40;99.90;;;;;;6210896;23;20212;-81
2023/04/12 01:20:53;;;;;;;7.27;4.40;;;1.30;99.90;;;;;;6208809;23;20174;-81
2023/04/12 01:23:25;;;;;;;7.13;4.23;;;1.30;99.90;;;;;;6208558;23;20138;-82
2023/04/12 01:25:57;;;;;;;6.83;4.50;;;1.40;1.00;;;;;;6181534;23;20239;-81
2023/04/12 01:28:31;;;;;;;6.53;3.97;;;1.50;99.90;;;;;;6208395;23;20209;-81
2023/04/12 01:30:58;;;;;;;5.20;4.30;;;1.60;99.90;;;;;;6207658;23;20264;-81
2023/04/12 01:33:30;;;;;;;5.00;4.00;;;1.60;1.00;;;;;;6181641;23;20602;-80
2023/04/12 01:35:59;;;;;;;8.63;4.63;;;1.60;1.00;;;;;;6181650;23;20154;-81
2023/04/12 01:38:26;;;;;;;7.50;4.50;;;1.60;56.50;;;;;;6181064;23;20642;-80
2023/04/12 01:40:53;;;;;;;7.53;4.10;;;1.70;99.90;;;;;;6181401;23;20523;-82
2023/04/12 01:43:18;;;;;;;6.87;4.13;;;1.70;1.00;;;;;;6208040;23;20662;-80
2023/04/12 01:45:44;;;;;;;5.47;4.07;;;1.70;1.00;;;;;;6208333;23;20146;-80
2023/04/12 01:48:11;;;;;;;9.10;4.67;;;1.60;99.90;;;;;;6207607;23;20147;-80
2023/04/12 01:50:54;;;;;;;5.17;3.87;;;1.60;99.90;;;;;;6180592;23;20182;-80
2023/04/12 01:53:32;;;;;;;5.53;4.30;;;1.60;99.90;;;;;;6207474;23;20162;-80
2023/04/12 01:56:03;;;;;;;5.27;3.90;;;1.70;1.00;;;;;;6180807;23;20281;-80
2023/04/12 01:58:30;;;;;;;5.57;4.07;;;1.70;99.90;;;;;;6180895;23;20180;-81
2023/04/12 02:00:58;;;;;;;5.40;3.70;;;1.80;1.00;;;;;;6181113;23;20229;-81
2023/04/12 02:03:25;;;;;;;5.23;3.60;;;1.90;1.00;;;;;;6180897;23;20193;-80
2023/04/12 02:05:51;;;;;;;4.17;3.77;;;2.00;1.00;;;;;;6207640;23;20200;-80
2023/04/12 02:08:17;;;;;;;7.77;4.30;;;2.20;1.00;;;;;;6180488;23;20166;-80
2023/04/12 02:10:42;;;;;;;5.77;3.90;;;2.10;99.90;;;;;;6207633;23;20202;-81
2023/04/12 02:13:08;;;;;;;9.23;3.87;;;2.10;1.00;;;;;;6181168;23;20208;-80
2023/04/12 02:15:33;;;;;;;4.20;3.80;;;2.00;1.00;;;;;;6180923;23;20217;-81
2023/04/12 02:18:00;;;;;;;5.87;4.17;;;1.90;1.00;;;;;;6180468;23;20505;-80
2023/04/12 02:20:26;;;;;;;7.17;4.40;;;1.80;1.00;;;;;;6180609;23;20369;-82
2023/04/12 02:22:52;;;;;;;6.20;3.90;;;1.80;52.10;;;;;;6180738;23;20293;-80
2023/04/12 02:25:17;;;;;;;5.47;4.07;;;1.90;1.00;;;;;;6207318;23;20158;-82
2023/04/12 02:27:47;;;;;;;8.00;4.20;;;2.10;99.90;;;;;;6207051;23;20230;-80
2023/04/12 02:30:14;;;;;;;5.17;3.40;;;2.10;1.00;;;;;;6180587;23;20178;-80
2023/04/12 02:32:45;;;;;;;7.00;4.03;;;2.10;1.00;;;;;;6207246;23;20158;-81
2023/04/12 02:35:12;;;;;;;4.17;3.60;;;2.20;1.00;;;;;;6180399;23;20158;-80
2023/04/12 02:37:39;;;;;;;7.00;3.60;;;2.30;1.00;;;;;;6207434;23;20497;-80
2023/04/12 02:40:08;;;;;;;3.63;3.30;;;2.40;1.00;;;;;;6180485;23;20190;-80
2023/04/12 02:42:34;;;;;;;5.13;3.27;;;2.50;99.90;;;;;;6180628;23;20189;-80
2023/04/12 02:44:59;;;;;;;4.57;3.60;;;2.60;1.00;;;;;;6207521;23;20155;-81
2023/04/12 02:47:27;;;;;;;5.30;3.40;;;2.70;1.00;;;;;;6207437;23;20236;-81
2023/04/12 02:49:53;;;;;;;5.23;3.60;;;2.70;49.90;;;;;;6206812;23;20175;-80
2023/04/12 02:52:19;;;;;;;4.60;3.23;;;2.50;1.00;;;;;;6206939;23;20162;-81
2023/04/12 02:54:45;;;;;;;4.33;3.13;;;2.50;17.60;;;;;;6179471;23;20217;-81
2023/04/12 02:57:11;;;;;;;5.57;3.77;;;2.60;88.80;;;;;;6180581;23;20163;-81
2023/04/12 02:59:37;;;;;;;4.53;3.13;;;2.70;1.00;;;;;;6180129;23;20244;-81
2023/04/12 03:02:03;;;;;;;5.13;3.33;;;2.80;1.00;;;;;;6179659;23;20196;-81
2023/04/12 03:04:29;;;;;;;4.33;2.83;;;2.70;1.00;;;;;;6187556;23;20174;-82
2023/04/12 03:06:55;;;;;;;5.77;3.77;;;2.80;1.00;;;;;;6184982;23;20185;-84
2023/04/12 03:09:21;;;;;;;5.32;3.40;;;2.80;1.00;;;;;;6208933;23;20386;-81
2023/04/12 03:11:47;;;;;;;5.20;3.37;;;2.80;1.00;;;;;;6209954;23;20165;-81
2023/04/12 03:14:13;;;;;;;4.87;3.00;;;2.80;1.00;;;;;;6183011;23;20169;-81
2023/04/12 03:16:38;;;;;;;5.20;3.23;;;2.90;1.00;;;;;;6183154;23;20162;-82
2023/04/12 03:19:05;;;;;;;6.00;3.37;;;2.90;99.90;;;;;;6182532;23;20650;-83
2023/04/12 03:21:32;;;;;;;3.33;2.80;;;2.80;99.90;;;;;;6210298;23;20258;-83
2023/04/12 03:23:58;;;;;;;4.63;3.50;;;2.90;1.00;;;;;;6209945;23;20178;-81
2023/04/12 03:26:25;;;;;;;6.27;3.30;;;2.90;1.00;;;;;;6182907;23;20493;-83
2023/04/12 03:28:51;;;;;;;3.37;3.00;;;2.90;1.00;;;;;;6182605;23;20161;-81
2023/04/12 03:31:19;;;;;;;3.73;2.90;;;2.90;1.00;;;;;;6208978;23;20238;-82
2023/04/12 03:33:45;;;;;;;3.60;3.30;;;2.90;99.90;;;;;;6182937;23;20161;-81
2023/04/12 03:36:11;;;;;;;4.57;3.67;;;3.00;99.90;;;;;;6209346;23;20562;-82
2023/04/12 03:38:36;;;;;;;5.57;3.70;;;2.90;99.90;;;;;;6209158;23;20861;-83
2023/04/12 03:41:02;;;;;;;3.83;3.20;;;2.90;99.90;;;;;;6209436;23;20191;-79
2023/04/12 03:43:34;;;;;;;5.63;3.53;;;2.90;99.90;;;;;;6182669;23;20168;-82
2023/04/12 03:46:00;;;;;;;4.07;3.30;;;2.90;99.90;;;;;;6209457;23;20138;-81
2023/04/12 03:48:26;;;;;;;3.70;3.17;;;2.90;1.00;;;;;;6181814;23;20162;-82
2023/04/12 03:50:53;;;;;;;4.07;3.27;;;3.00;99.90;;;;;;6209278;23;20645;-82
2023/04/12 03:53:20;;;;;;;4.60;3.73;;;3.10;99.90;;;;;;6182825;23;20158;-81
2023/04/12 03:55:46;;;;;;;4.10;3.70;;;3.20;99.90;;;;;;6183014;23;20237;-81
2023/04/12 03:58:15;;;;;;;6.23;3.50;;;3.20;99.90;;;;;;6182676;23;20595;-81
2023/04/12 04:00:41;;;;;;;5.53;3.63;;;3.10;99.90;;;;;;6182265;23;20686;-81
2023/04/12 04:03:08;;;;;;;3.17;2.90;;;3.10;99.90;;;;;;6182259;23;20167;-81
2023/04/12 04:05:33;;;;;;;4.03;3.30;;;3.00;99.90;;;;;;6209623;23;20595;-80
2023/04/12 04:08:01;;;;;;;4.53;3.30;;;3.00;99.90;;;;;;6182025;23;20280;-82
2023/04/12 04:10:27;;;;;;;6.63;3.47;;;3.10;99.90;;;;;;6182323;23;20193;-82
2023/04/12 04:12:53;;;;;;;6.40;3.80;;;3.70;99.90;;;;;;6182649;23;20302;-82
2023/04/12 04:15:19;;;;;;;4.80;3.43;;;3.30;99.90;;;;;;6209235;23;20158;-81
2023/04/12 04:17:47;;;;;;;6.83;3.77;;;3.40;1.00;;;;;;6182313;23;20185;-81
2023/04/12 04:20:13;;;;;;;5.67;3.70;;;3.30;1.00;;;;;;6182013;23;20182;-80
2023/04/12 04:22:39;;;;;;;5.63;3.50;;;3.30;1.00;;;;;;6182190;23;20200;-81
2023/04/12 04:25:05;;;;;;;5.13;3.00;;;3.30;1.00;;;;;;6209285;23;20178;-82
2023/04/12 04:27:33;;;;;;;5.40;3.50;;;3.40;1.00;;;;;;6182155;23;20165;-81
2023/04/12 04:30:01;;;;;;;3.93;3.23;;;3.40;1.00;;;;;;6181940;23;20181;-82
2023/04/12 04:32:27;;;;;;;6.33;3.83;;;3.50;99.90;;;;;;6182159;23;20614;-83
2023/04/12 04:34:55;;;;;;;4.13;3.30;;;3.60;99.90;;;;;;6181945;23;20158;-81
2023/04/12 04:37:21;;;;;;;5.47;3.30;;;3.60;99.90;;;;;;6181965;23;20995;-82
2023/04/12 04:39:46;;;;;;;6.60;4.07;;;3.60;99.90;;;;;;6181740;23;20184;-82
2023/04/12 04:42:12;;;;;;;5.20;3.73;;;3.60;99.90;;;;;;6181619;23;20573;-80
2023/04/12 04:44:37;;;;;;;5.37;3.40;;;3.60;99.90;;;;;;6181867;23;20529;-82
2023/04/12 04:47:03;;;;;;;3.73;3.40;;;3.60;99.90;;;;;;6183301;23;20241;-81
2023/04/12 04:49:29;;;;;;;3.50;3.20;;;4.50;99.90;;;;;;6181014;23;20190;-81
2023/04/12 04:51:55;;;;;;;4.93;3.60;;;3.60;99.90;;;;;;6181662;23;20166;-81
2023/04/12 04:54:21;;;;;;;4.67;3.20;;;3.70;99.90;;;;;;6181897;23;20621;-81
2023/04/12 04:56:47;;;;;;;4.77;3.27;;;3.70;99.90;;;;;;6181669;23;20189;-81
2023/04/12 04:59:12;;;;;;;4.93;3.33;;;3.70;99.90;;;;;;6180593;23;20622;-81
2023/04/12 05:01:39;;;;;;;3.70;3.23;;;3.70;99.90;;;;;;6180457;23;20182;-81
2023/04/12 05:04:05;;;;;;;5.57;3.77;;;3.80;99.90;;;;;;6178367;23;20154;-80
2023/04/12 05:06:31;;;;;;;5.63;3.33;;;3.70;99.90;;;;;;6179136;23;20170;-80
2023/04/12 05:08:57;;;;;;;4.67;3.80;;;3.70;99.90;;;;;;6178461;23;20201;-83
2023/04/12 05:11:22;;;;;;;5.47;3.67;;;3.70;99.90;;;;;;6178209;23;20634;-83
2023/04/12 05:13:48;;;;;;;6.67;4.13;;;3.70;99.90;;;;;;6178273;23;20652;-81
2023/04/12 05:16:13;;;;;;;6.63;4.10;;;3.70;99.90;;;;;;6178736;23;20188;-81
2023/04/12 05:18:39;;;;;;;5.17;3.70;;;3.70;99.90;;;;;;6179410;23;20162;-81
2023/04/12 05:21:05;;;;;;;6.20;3.83;;;3.70;99.90;;;;;;6178784;23;20190;-82
2023/04/12 05:23:42;;;;;;;6.53;4.07;;;3.70;99.90;;;;;;6179973;23;20208;-81
2023/04/12 05:26:07;;;;;;;5.07;4.07;;;3.60;99.90;;;;;;6206819;23;20590;-81
2023/04/12 05:28:33;;;;;;;5.43;4.20;;;3.70;99.90;;;;;;6179971;23;20165;-81
2023/04/12 05:30:59;;;;;;;5.77;3.77;;;3.70;99.90;;;;;;6206690;23;20220;-81
2023/04/12 05:33:25;;;;;;;7.93;4.07;;;3.70;99.90;;;;;;6181095;23;20173;-80
2023/04/12 05:35:50;;;;;;;8.00;4.70;;;3.70;99.90;;;;;;6181255;23;20559;-80
2023/04/12 05:38:16;;;;;;;6.13;3.90;;;3.80;99.90;;;;;;6180805;23;20241;-80
2023/04/12 05:40:42;;;;;;;4.20;3.63;;;3.80;99.90;;;;;;6208646;23;20166;-86
2023/04/12 05:43:11;;;;;;;6.50;4.20;;;3.80;99.90;;;;;;6186403;23;20212;-84
2023/04/12 05:45:37;;;;;;;6.63;4.10;;;3.90;99.90;;;;;;6181717;23;20629;-81
2023/04/12 05:48:03;;;;;;;4.30;3.90;;;4.00;99.90;;;;;;6181614;23;20158;-80
2023/04/12 05:50:29;;;;;;;6.53;4.53;;;4.10;99.90;;;;;;6180911;23;20182;-80
2023/04/12 05:52:54;;;;;;;5.70;3.90;;;4.10;99.90;;;;;;6181357;23;20629;-81
2023/04/12 05:55:20;;;;;;;7.57;4.33;;;4.20;99.90;;;;;;6208067;23;20174;-81
2023/04/12 05:57:46;;;;;;;6.20;3.83;;;4.40;99.90;;;;;;6181309;23;20216;-80
2023/04/12 06:00:15;;;;;;;7.07;4.07;;;4.50;99.90;;;;;;6208804;23;20174;-82
2023/04/12 06:02:45;;;;;;;7.30;4.30;;;4.60;99.90;;;;;;6185412;23;20189;-82
2023/04/12 06:05:11;;;;;;;6.97;4.43;;;4.70;99.90;;;;;;6211220;23;20155;-82
2023/04/12 06:07:38;;;;;;;6.67;4.20;;;4.90;99.90;;;;;;6184706;23;20159;-82
2023/04/12 06:10:05;;;;;;;4.70;4.23;;;5.00;96.60;;;;;;6184026;23;20225;-82
2023/04/12 06:12:31;;;;;;;6.33;4.00;;;5.20;84.10;;;;;;6187843;23;20158;-83
2023/04/12 06:14:57;;;;;;;6.17;3.80;;;5.40;79.80;;;;;;6193570;23;20150;-82
2023/04/12 06:17:22;;;;;;;4.97;3.67;;;5.70;61.20;;;;;;6210303;23;20758;-82
2023/04/12 06:19:48;;;;;;;4.87;3.47;;;5.90;39.80;;;;;;6209646;23;20193;-82
2023/04/12 06:22:14;;;;;;;6.57;3.67;;;6.50;13.20;;;;;;6183887;23;20534;-82
2023/04/12 06:24:40;;;;;;;4.60;3.97;;;6.30;3.40;;;;;;6183174;23;20158;-83
2023/04/12 06:27:05;;;;;;;5.70;3.57;;;6.40;1.00;;;;;;6183575;23;20609;-83
2023/04/12 06:29:31;;;;;;;4.80;3.80;;;6.40;1.00;;;;;;6185939;23;20312;-78
2023/04/12 06:31:56;;;;;;;4.30;3.70;;;6.50;1.00;;;;;;6186514;23;20162;-84
2023/04/12 06:34:22;;;;;;;5.70;3.70;;;6.30;1.00;;;;;;6186239;23;20158;-82
2023/04/12 06:36:47;;;;;;;4.67;3.70;;;6.30;1.00;;;;;;6214027;23;20157;-84
2023/04/12 06:39:15;;;;;;;6.60;3.87;;;6.30;1.00;;;;;;6186668;23;20166;-83
2023/04/12 06:41:42;;;;;;;6.57;4.00;;;6.40;1.00;;;;;;6213974;23;20206;-81
2023/04/12 06:44:08;;;;;;;4.27;3.87;;;6.40;1.00;;;;;;6212996;23;20162;-83
2023/04/12 06:46:34;;;;;;;4.43;3.57;;;6.50;1.00;;;;;;6212732;23;20353;-84
2023/04/12 06:49:00;;;;;;;5.17;4.20;;;6.50;1.00;;;;;;6188199;23;20147;-83
2023/04/12 06:51:27;;;;;;;4.63;3.97;;;6.60;1.00;;;;;;6188679;23;20182;-84
2023/04/12 06:53:52;;;;;;;5.00;4.07;;;6.60;1.00;;;;;;6185727;23;20165;-79
2023/04/12 06:56:18;;;;;;;5.17;3.97;;;6.60;1.00;;;;;;6212585;23;20142;-80
2023/04/12 06:58:44;;;;;;;4.57;3.63;;;6.70;1.00;;;;;;6186017;23;20209;-84
2023/04/12 07:01:10;;;;;;;4.87;4.30;;;6.90;1.00;;;;;;6187260;23;20537;-84
2023/04/12 07:03:35;;;;;;;5.10;4.23;;;7.00;1.00;;;;;;6186176;23;20233;-79
2023/04/12 07:06:03;;;;;;;5.93;4.43;;;7.10;1.00;;;;;;6187686;23;20169;-83
2023/04/12 07:08:29;;;;;;;4.13;3.70;;;7.40;1.00;;;;;;6187173;23;20186;-82
2023/04/12 07:10:55;;;;;;;6.20;3.53;;;7.70;1.00;;;;;;6187991;23;20578;-82
2023/04/12 07:13:21;;;;;;;4.40;3.40;;;8.10;1.00;;;;;;6184656;23;20155;-84
2023/04/12 07:15:48;;;;;;;4.03;3.63;;;8.40;1.00;;;;;;6182955;23;20162;-79
2023/04/12 07:18:14;;;;;;;5.23;3.70;;;8.50;1.00;;;;;;6181200;23;20155;-80
2023/04/12 07:20:40;;;;;;;5.17;3.53;;;8.60;1.00;;;;;;6207827;23;20566;-80
2023/04/12 07:23:05;;;;;;;5.60;3.30;;;8.60;1.00;;;;;;6181888;23;20182;-81
2023/04/12 07:25:31;;;;;;;5.83;3.60;;;8.40;1.00;;;;;;6208784;23;20154;-80
2023/04/12 07:27:56;;;;;;;4.87;3.43;;;8.30;1.00;;;;;;6181787;23;20193;-80
2023/04/12 07:30:22;;;;;;;3.90;3.30;;;8.40;1.00;;;;;;6178766;23;20268;-82
2023/04/12 07:32:48;;;;;;;4.30;3.60;;;8.60;1.00;;;;;;6178174;23;20162;-82
2023/04/12 07:35:13;;;;;;;6.80;3.50;;;8.70;1.00;;;;;;6178534;23;20587;-79
2023/04/12 07:37:39;;;;;;;5.13;3.97;;;8.80;1.00;;;;;;6177868;23;20154;-79
2023/04/12 07:40:06;;;;;;;3.87;3.47;;;8.80;1.00;;;;;;6205175;23;20181;-79
2023/04/12 07:42:31;;;;;;;4.27;3.30;;;8.80;1.00;;;;;;6178079;23;20193;-82
2023/04/12 07:44:57;;;;;;;5.30;3.53;;;8.90;1.00;;;;;;6206462;23;20154;-79
2023/04/12 07:47:23;;;;;;;5.37;3.63;;;9.20;1.00;;;;;;6180593;23;20169;-80
2023/04/12 07:50:06;;;;;;;4.23;3.40;;;9.40;1.00;;;;;;6180875;23;20182;-82
2023/04/12 07:52:32;;;;;;;4.43;2.60;;;9.50;1.00;;;;;;6181190;23;20157;-78
2023/04/12 07:54:57;;;;;;;5.17;3.00;;;9.20;1.00;;;;;;6206581;23;20193;-78
2023/04/12 07:57:23;;;;;;;5.93;3.50;;;9.30;1.00;;;;;;6207768;23;20537;-78
2023/04/12 07:59:49;;;;;;;6.10;3.50;;;9.10;1.00;;;;;;6205881;23;20182;-78
2023/04/12 08:02:23;;;;;;;3.70;2.90;;;9.00;1.00;;;;;;6180869;23;20269;-80
2023/04/12 08:04:58;;;;;;;5.60;3.20;;;8.80;1.00;;;;;;6181512;23;20174;-78
2023/04/12 08:07:25;;;;;;;5.93;3.27;;;8.90;1.00;;;;;;6182811;23;20233;-81
2023/04/12 08:09:51;;;;;;;4.70;2.90;;;9.10;1.00;;;;;;6180792;23;20201;-79
2023/04/12 08:12:17;;;;;;;3.93;3.07;;;9.20;1.00;;;;;;6179767;23;20154;-80
2023/04/12 08:14:42;;;;;;;4.27;3.20;;;9.50;1.00;;;;;;6205039;23;20178;-81
2023/04/12 08:17:08;;;;;;;5.17;3.10;;;9.50;1.00;;;;;;6205929;23;20168;-80
2023/04/12 08:19:34;;;;;;;6.20;2.90;;;9.50;1.00;;;;;;6179072;23;20205;-79
2023/04/12 08:22:00;;;;;;;6.07;3.50;;;9.70;1.00;;;;;;6175934;23;20933;-81
2023/04/12 08:24:28;;;;;;;4.27;3.37;;;9.90;1.00;;;;;;6182488;23;20240;-80
2023/04/12 08:26:54;;;;;;;3.97;3.13;;;10.00;1.00;;;;;;6182881;23;20160;-82
2023/04/12 08:29:20;;;;;;;5.30;3.40;;;10.00;1.00;;;;;;6181103;23;20159;-82
2023/04/12 08:31:46;;;;;;;4.03;3.47;;;10.20;1.00;;;;;;6207847;23;20487;-82
2023/04/12 08:34:11;;;;;;;4.20;3.23;;;10.20;1.00;;;;;;6182151;23;20169;-80
2023/04/12 08:36:37;;;;;;;7.27;3.47;;;10.50;1.00;;;;;;6182572;23;20219;-80
2023/04/12 08:39:03;;;;;;;3.83;3.10;;;10.60;1.00;;;;;;6209099;23;20154;-81
2023/04/12 08:41:28;;;;;;;3.47;3.00;;;10.50;1.00;;;;;;6182573;23;20236;-81
2023/04/12 08:43:54;;;;;;;7.00;3.13;;;10.50;1.00;;;;;;6182340;23;20170;-80
2023/04/12 08:46:20;;;;;;;3.13;2.50;;;10.40;1.00;;;;;;6182893;23;20182;-81
2023/04/12 08:48:53;;;;;;;4.87;2.10;;;10.60;1.00;;;;;;6182003;23;20154;-80
2023/04/12 08:51:20;;;;;;;4.67;2.40;;;10.80;1.00;;;;;;6208619;23;20206;-81
2023/04/12 08:53:46;;;;;;;4.23;2.10;;;11.10;1.00;;;;;;6181067;23;20569;-79
2023/04/12 08:56:13;;;;;;;4.60;1.92;;;11.40;1.00;;;;;;6179261;23;20595;-83
2023/04/12 08:58:47;;;;;;;4.78;1.50;;;11.80;1.00;;;;;;6176313;23;20490;-79
2023/04/12 09:01:19;;;;;;;2.85;1.38;;;11.80;1.00;;;;;;6202908;23;20215;-80
2023/04/12 09:03:45;;;;;;;4.03;1.33;;;11.70;1.00;;;;;;6180450;23;20209;-78
2023/04/12 09:06:12;;;;;;;2.88;1.35;;;11.70;1.00;;;;;;6180895;23;20155;-79
2023/04/12 09:08:51;;;;;;;4.10;1.30;;;11.70;1.00;;;;;;6206111;23;20949;-78
2023/04/12 09:11:24;;;;;;;3.07;1.20;;;11.50;1.00;;;;;;6180680;23;20634;-78
2023/04/12 09:13:49;;;;;;;2.73;1.40;;;11.50;1.00;;;;;;6180353;23;20564;-80
2023/04/12 09:16:15;;;;;;;3.97;1.70;;;11.30;1.00;;;;;;6179534;23;20198;-81
2023/04/12 09:18:49;;;;;;;3.17;1.37;;;11.20;1.00;;;;;;6207064;23;20475;-81
2023/04/12 09:21:14;;;;;;;3.80;1.30;;;11.20;1.00;;;;;;6180198;23;20534;-81
2023/04/12 09:23:40;;;;;;;3.57;1.40;;;11.20;1.00;;;;;;6206635;23;20146;-80
2023/04/12 09:26:07;;;;;;;3.00;1.50;;;11.10;1.00;;;;;;6180491;23;20155;-80
2023/04/12 09:28:33;;;;;;;3.60;1.83;;;11.20;1.00;;;;;;6207785;23;20208;-80
2023/04/12 09:30:59;;;;;;;3.63;1.57;;;11.20;1.00;;;;;;6181106;23;20275;-80
2023/04/12 09:33:35;;;;;;;5.20;1.45;;;11.20;1.00;;;;;;6207143;23;20156;-81
2023/04/12 09:36:02;;;;;;;4.05;1.30;;;11.10;1.00;;;;;;6181367;23;20606;-80
2023/04/12 09:38:32;;;;;;;4.07;1.73;;;11.00;1.00;;;;;;6205900;23;20154;-80
2023/04/12 09:41:18;;;;;;;3.47;1.60;;;11.00;1.00;;;;;;6206722;23;20171;-79
2023/04/12 09:43:43;;;;;;;4.40;2.07;;;11.00;1.00;;;;;;6180308;23;20155;-81
2023/04/12 09:46:14;;;;;;;4.25;1.92;;;11.00;1.00;;;;;;6180039;23;20229;-81
2023/04/12 09:48:40;;;;;;;4.20;1.77;;;10.90;1.00;;;;;;6179721;23;20154;-78
2023/04/12 09:51:06;;;;;;;2.90;1.80;;;10.60;1.00;;;;;;6180227;23;20519;-81
2023/04/12 09:53:40;;;;;;;6.03;2.13;;;10.50;1.00;;;;;;6178409;23;20158;-80
2023/04/12 09:56:08;;;;;;;3.93;1.90;;;10.20;1.00;;;;;;6207168;23;20139;-81
2023/04/12 09:58:36;;;;;;;4.30;1.53;;;10.10;1.00;;;;;;6179855;23;20494;-81
2023/04/12 10:01:02;;;;;;;3.77;1.93;;;10.00;1.00;;;;;;6180206;23;20184;-81
2023/04/12 10:03:29;;;;;;;3.63;1.80;;;10.00;1.00;;;;;;6185936;23;20155;-81
2023/04/12 10:05:54;;;;;;;3.10;1.60;;;9.80;1.00;;;;;;6180529;23;20169;-79
2023/04/12 10:08:24;;;;;;;4.60;1.80;;;9.70;1.00;;;;;;6206717;23;20575;-80
2023/04/12 10:10:53;;;;;;;3.47;1.53;;;9.60;1.00;;;;;;6206531;23;20198;-78
2023/04/12 10:13:21;;;;;;;4.50;1.83;;;9.60;1.00;;;;;;6206105;23;20160;-79
2023/04/12 10:15:49;;;;;;;3.27;1.80;;;9.50;1.00;;;;;;6206852;23;20209;-79
2023/04/12 10:18:17;;;;;;;4.70;1.83;;;9.60;1.00;;;;;;6179166;23;20162;-79
2023/04/12 10:20:56;;;;;;;2.97;1.73;;;9.60;1.00;;;;;;6207800;23;20181;-81
2023/04/12 10:23:22;;;;;;;3.33;1.60;;;9.50;1.00;;;;;;6207590;23;20477;-79
2023/04/12 10:25:48;;;;;;;5.50;1.93;;;9.60;1.00;;;;;;6205926;23;20161;-80
2023/04/12 10:28:16;;;;;;;3.40;1.70;;;9.60;1.00;;;;;;6179263;23;20155;-80
2023/04/12 10:30:42;;;;;;;2.63;1.90;;;9.50;1.00;;;;;;6179085;23;20705;-80
2023/04/12 10:33:08;;;;;;;3.53;1.83;;;10.30;1.00;;;;;;6205363;23;20154;-82
2023/04/12 10:35:55;;;;;;;5.07;1.60;;;9.50;1.00;;;;;;6205766;23;20180;-81
2023/04/12 10:38:25;;;;;;;3.70;1.90;;;9.50;4.10;;;;;;6181800;23;20196;-82
2023/04/12 10:41:13;;;;;;;5.27;1.80;;;9.50;9.50;;;;;;6208635;23;20174;-81
2023/04/12 10:43:50;;;;;;;2.70;1.77;;;9.30;9.50;;;;;;6204491;23;20150;-81
2023/04/12 10:46:45;;;;;;;3.53;2.10;;;9.10;43.70;;;;;;6180603;23;20147;-82
2023/04/12 10:49:12;;;;;;;2.50;1.30;;;9.00;64.00;;;;;;6179214;23;20218;-80
2023/04/12 10:51:39;;;;;;;4.57;2.60;;;8.80;81.00;;;;;;6180098;23;20155;-82
2023/04/12 10:54:08;;;;;;;52.77;32.30;;;8.70;99.90;;;;;;6182758;23;20162;-81
2023/04/12 10:56:42;;;;;;;6.37;2.20;;;8.60;99.90;;;;;;6181729;23;20173;-82
2023/04/12 10:59:08;;;;;;;3.80;2.03;;;8.00;99.90;;;;;;6210803;23;20895;-84
2023/04/12 11:01:35;;;;;;;3.30;2.20;;;8.50;99.90;;;;;;6186271;23;20186;-83
2023/04/12 11:04:20;;;;;;;4.27;1.50;;;8.40;99.90;;;;;;6210582;23;20162;-84
2023/04/12 11:06:51;;;;;;;4.17;1.90;;;8.40;99.90;;;;;;6210177;23;20300;-83
2023/04/12 11:09:21;;;;;;;3.23;2.47;;;8.30;99.90;;;;;;6185396;23;20182;-83
2023/04/12 11:11:48;;;;;;;3.20;2.03;;;8.30;99.90;;;;;;6184208;23;20155;-82
2023/04/12 11:14:17;;;;;;;4.40;1.50;;;8.30;99.90;;;;;;6185107;23;20481;-79
2023/04/12 11:17:07;;;;;;;2.90;1.40;;;8.30;99.90;;;;;;6185855;23;20408;-82
2023/04/12 11:19:36;;;;;;;4.50;1.80;;;8.30;99.90;;;;;;6186360;23;20199;-83
2023/04/12 11:22:07;;;;;;;3.30;2.60;;;8.20;99.90;;;;;;6183512;23;20182;-82
2023/04/12 11:24:36;;;;;;;3.07;1.50;;;8.20;99.90;;;;;;6185874;23;20624;-82
2023/04/12 11:27:03;;;;;;;4.53;1.93;;;8.30;99.90;;;;;;6212830;23;20161;-83
2023/04/12 11:29:31;;;;;;;2.50;1.60;;;8.20;99.90;;;;;;6186066;23;20178;-82
2023/04/12 11:31:57;;;;;;;2.23;1.73;;;8.20;99.90;;;;;;6184633;23;20223;-84
2023/04/12 11:34:22;;;;;;;2.57;1.67;;;8.20;99.90;;;;;;6185439;23;20190;-82
2023/04/12 11:36:52;;;;;;;4.07;2.50;;;8.20;99.90;;;;;;6211024;23;20230;-82
2023/04/12 11:39:20;;;;;;;7.23;6.00;;;8.30;1.00;;;;;;6178987;23;20468;-81
2023/04/12 11:41:48;;;;;;;3.17;2.57;;;8.40;1.00;;;;;;6206658;23;20231;-83
2023/04/12 11:44:18;;;;;;;4.00;3.47;;;8.50;1.00;;;;;;6180563;23;20225;-82
2023/04/12 11:46:45;;;;;;;10.90;9.73;;;8.50;1.00;;;;;;6207282;23;20187;-82
2023/04/12 11:49:18;;;;;;;33.53;29.93;;;8.50;1.00;;;;;;6180113;23;20186;-82
2023/04/12 11:51:44;;;;;;;21.43;15.47;;;8.60;1.00;;;;;;6204963;23;20502;-82
2023/04/12 11:54:13;;;;;;;8.43;5.20;;;8.70;1.00;;;;;;6207857;23;20166;-82
2023/04/12 11:56:40;;;;;;;11.93;9.63;;;8.80;43.00;;;;;;6181206;23;20162;-82
2023/04/12 11:59:06;;;;;;;7.93;7.13;;;8.70;1.00;;;;;;6172873;23;20237;-82
2023/04/12 12:01:34;;;;;;;5.57;4.63;;;8.80;1.00;;;;;;6181585;23;20190;-82
2023/04/12 12:04:00;;;;;;;5.00;3.97;;;8.80;1.00;;;;;;6181375;23;20216;-82
2023/04/12 12:06:27;;;;;;;5.63;4.93;;;8.80;1.00;;;;;;6180839;23;20154;-82
2023/04/12 12:08:54;;;;;;;4.77;3.37;;;8.80;1.00;;;;;;6179425;23;20178;-83
2023/04/12 12:11:20;;;;;;;5.43;3.97;;;8.80;1.00;;;;;;6180470;23;20328;-83
2023/04/12 12:13:47;;;;;;;6.57;5.23;;;8.90;1.00;;;;;;6181458;23;20265;-82
2023/04/12 12:16:13;;;;;;;6.17;5.27;;;8.80;1.00;;;;;;6181021;23;20154;-82
2023/04/12 12:18:40;;;;;;;11.57;10.50;;;8.90;1.00;;;;;;6206264;23;20200;-82
2023/04/12 12:21:08;;;;;;;4.40;4.00;;;9.00;1.00;;;;;;6179111;23;20738;-82
2023/04/12 12:23:34;;;;;;;3.07;2.60;;;9.10;1.00;;;;;;6179580;23;20171;-82
2023/04/12 12:26:02;;;;;;;5.57;4.90;;;9.10;99.90;;;;;;6178547;23;20190;-82
2023/04/12 12:28:28;;;;;;;5.50;5.00;;;9.20;99.90;;;;;;6178315;23;20154;-83
2023/04/12 12:30:57;;;;;;;2.73;1.70;;;9.10;99.90;;;;;;6179546;23;20519;-82
2023/04/12 12:33:24;;;;;;;2.10;1.60;;;9.00;1.00;;;;;;6179232;23;20186;-81
2023/04/12 12:35:56;;;;;;;2.10;1.70;;;8.90;1.00;;;;;;6180621;23;20188;-82
2023/04/12 12:38:22;;;;;;;1.83;1.70;;;8.90;99.90;;;;;;6180373;23;20984;-81
2023/04/12 12:40:49;;;;;;;1.93;1.57;;;8.90;1.00;;;;;;6208076;23;20185;-81
2023/04/12 12:43:19;;;;;;;2.43;1.60;;;8.80;1.00;;;;;;6181105;23;20639;-81
2023/04/12 12:45:45;;;;;;;2.00;1.80;;;8.90;1.00;;;;;;6179571;23;20554;-84
2023/04/12 12:48:12;;;;;;;1.93;1.67;;;9.10;1.00;;;;;;6206503;23;20147;-85
2023/04/12 12:50:38;;;;;;;4.53;2.67;;;9.10;1.00;;;;;;6180367;23;20252;-83
2023/04/12 12:53:07;;;;;;;3.40;3.10;;;9.20;1.00;;;;;;6178887;23;20175;-82
2023/04/12 12:55:33;;;;;;;9.87;8.97;;;9.10;1.00;;;;;;6181367;23;20169;-83
2023/04/12 12:57:59;;;;;;;6.40;5.80;;;9.10;99.90;;;;;;6181012;23;20150;-82
2023/04/12 13:00:26;;;;;;;12.53;11.47;;;9.00;1.00;;;;;;6180743;23;20292;-83
2023/04/12 13:02:53;;;;;;;6.37;5.73;;;9.10;1.00;;;;;;6182112;23;20264;-85
2023/04/12 13:05:20;;;;;;;5.57;5.00;;;9.10;1.00;;;;;;6183352;23;20162;-82